Time;durP1;ratioP1;P1;durP2;ratioP2;P2;SDS_P1;SDS_P2;PMS_P1;PMS_P2;Temp;Humidity;BMP_temperature;BMP_pressure;BME280_temperature;BME280_humidity;BME280_pressure;Samples;Min_cycle;Max_cycle;Signal;HPM_P1;HPM_P2
2021/03/03 00:00:49;;;;;;;24.08;10.68;;;;;;;;;;5053067;28;20358;-60
2021/03/03 00:03:15;;;;;;;26.90;12.40;;;;;;;;;;5058301;28;20040;-59
2021/03/03 00:05:41;;;;;;;25.13;9.43;;;;;;;;;;5071668;28;20020;-59
2021/03/03 00:08:07;;;;;;;18.98;8.25;;;;;;;;;;5070531;28;20056;-59
2021/03/03 00:10:33;;;;;;;22.60;10.18;;;;;;;;;;5071377;28;20023;-59
2021/03/03 00:12:59;;;;;;;26.23;10.52;;;;;;;;;;5069610;28;20024;-59
2021/03/03 00:15:25;;;;;;;21.70;9.48;;;;;;;;;;5072969;28;20024;-59
2021/03/03 00:17:51;;;;;;;25.95;10.57;;;;;;;;;;5059626;28;20371;-59
2021/03/03 00:20:17;;;;;;;24.10;9.52;;;;;;;;;;5052628;28;20473;-59
2021/03/03 00:22:43;;;;;;;25.80;9.85;;;;;;;;;;5051503;28;20033;-59
2021/03/03 00:25:09;;;;;;;23.27;10.38;;;;;;;;;;5053177;28;20075;-59
2021/03/03 00:27:35;;;;;;;26.65;10.18;;;;;;;;;;5051808;28;20033;-59
2021/03/03 00:30:01;;;;;;;22.50;9.23;;;;;;;;;;5052786;28;20028;-59
2021/03/03 00:32:27;;;;;;;20.85;9.43;;;;;;;;;;5052578;28;20550;-60
2021/03/03 00:34:53;;;;;;;21.27;9.25;;;;;;;;;;5072217;28;20024;-59
2021/03/03 00:37:19;;;;;;;21.10;8.88;;;;;;;;;;5072599;28;20810;-59
2021/03/03 00:39:45;;;;;;;24.30;9.70;;;;;;;;;;5074346;28;20078;-59
2021/03/03 00:42:11;;;;;;;23.65;8.85;;;;;;;;;;5075973;28;20032;-59
2021/03/03 00:44:37;;;;;;;20.65;9.55;;;;;;;;;;5076249;28;20438;-59
2021/03/03 00:47:03;;;;;;;21.75;8.90;;;;;;;;;;5075463;28;20021;-59
2021/03/03 00:49:29;;;;;;;25.10;11.30;;;;;;;;;;5057344;28;20569;-59
2021/03/03 00:51:55;;;;;;;24.30;10.10;;;;;;;;;;5054751;28;20024;-59
2021/03/03 00:54:21;;;;;;;29.67;10.80;;;;;;;;;;5055988;28;20083;-59
2021/03/03 00:56:47;;;;;;;21.10;8.75;;;;;;;;;;5055944;28;20108;-59
2021/03/03 00:59:13;;;;;;;19.50;8.63;;;;;;;;;;5055725;28;20071;-59
2021/03/03 01:01:39;;;;;;;21.10;8.63;;;;;;;;;;5063741;28;20421;-59
2021/03/03 01:04:05;;;;;;;18.52;7.72;;;;;;;;;;5075610;28;20559;-59
2021/03/03 01:06:31;;;;;;;17.30;8.93;;;;;;;;;;5076012;28;20017;-59
2021/03/03 01:08:57;;;;;;;22.58;9.23;;;;;;;;;;5074948;28;20036;-59
2021/03/03 01:11:23;;;;;;;26.10;9.27;;;;;;;;;;5072849;28;20474;-59
2021/03/03 01:13:49;;;;;;;29.67;9.82;;;;;;;;;;5074037;28;20028;-59
2021/03/03 01:16:15;;;;;;;23.90;8.80;;;;;;;;;;5075394;28;20445;-59
2021/03/03 01:18:41;;;;;;;19.35;8.88;;;;;;;;;;5075415;28;20030;-59
2021/03/03 01:21:07;;;;;;;17.77;8.85;;;;;;;;;;5069916;28;20029;-59
2021/03/03 01:23:33;;;;;;;18.80;7.93;;;;;;;;;;5055220;28;20405;-59
2021/03/03 01:25:59;;;;;;;18.20;8.38;;;;;;;;;;5065286;28;20474;-59
2021/03/03 01:28:25;;;;;;;22.77;9.32;;;;;;;;;;5070794;28;20048;-59
2021/03/03 01:30:51;;;;;;;32.97;9.20;;;;;;;;;;5055227;28;20074;-59
2021/03/03 01:33:25;;;;;;;20.42;8.85;;;;;;;;;;5055389;28;20455;-59
2021/03/03 01:35:51;;;;;;;23.02;9.20;;;;;;;;;;5055408;28;20021;-59
2021/03/03 01:38:17;;;;;;;19.48;8.93;;;;;;;;;;5053156;28;20033;-59
2021/03/03 01:40:43;;;;;;;22.58;9.27;;;;;;;;;;5073640;28;20082;-59
2021/03/03 01:43:08;;;;;;;31.20;9.57;;;;;;;;;;5071700;28;20028;-59
2021/03/03 01:45:34;;;;;;;19.30;8.65;;;;;;;;;;5075331;28;20346;-59
2021/03/03 01:48:01;;;;;;;22.40;8.82;;;;;;;;;;5073974;28;20040;-59
2021/03/03 01:50:27;;;;;;;20.05;9.07;;;;;;;;;;5075203;28;20027;-59
2021/03/03 01:52:53;;;;;;;21.38;8.82;;;;;;;;;;5064600;28;20462;-59
2021/03/03 01:55:19;;;;;;;19.98;9.23;;;;;;;;;;5055078;28;20104;-59
2021/03/03 01:57:45;;;;;;;23.85;9.30;;;;;;;;;;5054424;28;20422;-59
2021/03/03 02:00:11;;;;;;;23.65;9.57;;;;;;;;;;5054852;28;20063;-59
2021/03/03 02:02:37;;;;;;;28.13;10.40;;;;;;;;;;5058771;28;20021;-59
2021/03/03 02:05:04;;;;;;;16.40;8.27;;;;;;;;;;5065538;28;20103;-59
2021/03/03 02:07:51;;;;;;;19.60;8.85;;;;;;;;;;5064982;28;20070;-59
2021/03/03 02:10:36;;;;;;;25.58;10.20;;;;;;;;;;5065065;28;20075;-59
2021/03/03 02:13:07;;;;;;;19.40;7.82;;;;;;;;;;5063471;28;20047;-59
2021/03/03 02:15:36;;;;;;;15.70;7.65;;;;;;;;;;5063072;28;20021;-59
2021/03/03 02:18:03;;;;;;;19.85;7.90;;;;;;;;;;5063839;28;20044;-59
2021/03/03 02:20:32;;;;;;;25.05;8.50;;;;;;;;;;5063467;28;20049;-59
2021/03/03 02:23:25;;;;;;;16.48;7.97;;;;;;;;;;5061082;28;20119;-59
2021/03/03 02:25:51;;;;;;;24.73;8.95;;;;;;;;;;5064328;28;20020;-59
2021/03/03 02:28:17;;;;;;;18.60;8.07;;;;;;;;;;5061854;28;20032;-59
2021/03/03 02:30:44;;;;;;;17.17;7.70;;;;;;;;;;5064875;28;20021;-59
2021/03/03 02:33:11;;;;;;;19.40;8.18;;;;;;;;;;5063520;28;20033;-59
2021/03/03 02:35:38;;;;;;;16.90;8.10;;;;;;;;;;5062747;28;20017;-59
2021/03/03 02:38:05;;;;;;;23.70;8.82;;;;;;;;;;5062952;28;20020;-59
2021/03/03 02:40:31;;;;;;;24.40;8.80;;;;;;;;;;5061082;28;20021;-59
2021/03/03 02:42:58;;;;;;;18.83;8.23;;;;;;;;;;5067221;28;20037;-59
2021/03/03 02:45:25;;;;;;;18.98;6.93;;;;;;;;;;5061730;28;20024;-59
2021/03/03 02:47:51;;;;;;;16.77;7.72;;;;;;;;;;5063134;28;20065;-59
2021/03/03 02:50:18;;;;;;;23.92;8.50;;;;;;;;;;5067176;28;20025;-59
2021/03/03 02:52:54;;;;;;;17.15;7.90;;;;;;;;;;5068079;28;20048;-59
2021/03/03 02:55:21;;;;;;;21.52;8.63;;;;;;;;;;5054546;28;20367;-59
2021/03/03 02:57:47;;;;;;;27.10;9.13;;;;;;;;;;5053383;28;20396;-59
2021/03/03 03:00:17;;;;;;;17.85;8.02;;;;;;;;;;5052845;28;20124;-59
2021/03/03 03:02:45;;;;;;;17.80;8.68;;;;;;;;;;5054805;28;20367;-59
2021/03/03 03:05:12;;;;;;;17.85;8.43;;;;;;;;;;5054596;28;20025;-59
2021/03/03 03:07:40;;;;;;;20.90;8.60;;;;;;;;;;5057463;28;20020;-59
2021/03/03 03:10:07;;;;;;;24.67;8.43;;;;;;;;;;5073347;28;20513;-59
2021/03/03 03:12:34;;;;;;;19.25;8.68;;;;;;;;;;5070129;28;20034;-59
2021/03/03 03:15:01;;;;;;;19.95;8.25;;;;;;;;;;5064595;28;20028;-59
2021/03/03 03:17:27;;;;;;;16.88;8.07;;;;;;;;;;5056848;28;20051;-59
2021/03/03 03:19:54;;;;;;;22.77;8.48;;;;;;;;;;5053286;28;20396;-59
2021/03/03 03:22:23;;;;;;;23.58;8.45;;;;;;;;;;5053760;28;20031;-59
2021/03/03 03:24:49;;;;;;;17.10;8.05;;;;;;;;;;5051844;28;20156;-59
2021/03/03 03:27:15;;;;;;;18.00;7.47;;;;;;;;;;5060344;28;20032;-59
2021/03/03 03:29:42;;;;;;;16.42;8.43;;;;;;;;;;5073156;28;20105;-58
2021/03/03 03:32:09;;;;;;;20.25;8.18;;;;;;;;;;5072558;28;20032;-58
2021/03/03 03:34:36;;;;;;;16.30;7.68;;;;;;;;;;5054017;28;20068;-58
2021/03/03 03:37:02;;;;;;;16.52;6.82;;;;;;;;;;5053981;28;20025;-58
2021/03/03 03:39:28;;;;;;;24.30;8.65;;;;;;;;;;5051685;28;20473;-58
2021/03/03 03:41:54;;;;;;;19.35;8.05;;;;;;;;;;5051813;28;20048;-59
2021/03/03 03:44:20;;;;;;;18.30;7.90;;;;;;;;;;5063315;28;20033;-59
2021/03/03 03:46:47;;;;;;;17.30;7.38;;;;;;;;;;5051532;28;20025;-58
2021/03/03 03:49:13;;;;;;;15.82;7.53;;;;;;;;;;5052316;28;20033;-58
2021/03/03 03:51:42;;;;;;;19.70;8.82;;;;;;;;;;5052839;28;20075;-58
2021/03/03 03:54:08;;;;;;;20.35;8.10;;;;;;;;;;5054171;28;20033;-58
2021/03/03 03:56:35;;;;;;;20.15;8.13;;;;;;;;;;5052679;28;20376;-59
2021/03/03 03:59:01;;;;;;;18.65;7.97;;;;;;;;;;5053687;28;20121;-59
2021/03/03 04:01:27;;;;;;;14.02;7.57;;;;;;;;;;5052904;28;20024;-58
2021/03/03 04:03:53;;;;;;;18.40;8.25;;;;;;;;;;5051621;28;20028;-58
2021/03/03 04:06:19;;;;;;;20.80;8.88;;;;;;;;;;5052765;28;20023;-58
2021/03/03 04:08:45;;;;;;;23.70;8.45;;;;;;;;;;5053590;28;20045;-59
2021/03/03 04:11:11;;;;;;;17.60;8.95;;;;;;;;;;5065235;28;20027;-59
2021/03/03 04:13:37;;;;;;;22.95;8.98;;;;;;;;;;5074140;28;20436;-58
2021/03/03 04:16:03;;;;;;;21.08;9.27;;;;;;;;;;5076821;28;20472;-58
2021/03/03 04:18:29;;;;;;;20.30;8.65;;;;;;;;;;5064356;28;20362;-58
2021/03/03 04:20:55;;;;;;;22.33;8.98;;;;;;;;;;5057565;28;20024;-58
2021/03/03 04:23:21;;;;;;;22.13;8.38;;;;;;;;;;5067505;28;20020;-58
2021/03/03 04:25:47;;;;;;;15.18;8.27;;;;;;;;;;5076088;28;20025;-59
2021/03/03 04:28:13;;;;;;;24.05;8.48;;;;;;;;;;5075020;28;20037;-58
2021/03/03 04:30:39;;;;;;;21.30;7.68;;;;;;;;;;5074792;28;20029;-58
2021/03/03 04:33:05;;;;;;;22.65;7.70;;;;;;;;;;5074937;28;20050;-59
2021/03/03 04:35:31;;;;;;;21.83;8.80;;;;;;;;;;5075016;28;20021;-58
2021/03/03 04:37:57;;;;;;;17.70;8.38;;;;;;;;;;5070442;28;20028;-58
2021/03/03 04:40:23;;;;;;;18.52;8.27;;;;;;;;;;5073965;28;20024;-58
2021/03/03 04:42:49;;;;;;;17.88;8.63;;;;;;;;;;5075221;28;20351;-58
2021/03/03 04:45:16;;;;;;;16.77;8.23;;;;;;;;;;5076359;28;20017;-59
2021/03/03 04:47:42;;;;;;;21.80;9.65;;;;;;;;;;5075464;28;20412;-58
2021/03/03 04:50:08;;;;;;;18.67;7.20;;;;;;;;;;5075538;28;20029;-58
2021/03/03 04:52:34;;;;;;;18.52;8.00;;;;;;;;;;5074215;28;20474;-58
2021/03/03 04:55:01;;;;;;;30.48;8.73;;;;;;;;;;5075913;28;20039;-58
2021/03/03 04:57:27;;;;;;;21.33;9.13;;;;;;;;;;5075581;28;20035;-59
2021/03/03 04:59:53;;;;;;;19.20;8.02;;;;;;;;;;5074845;28;20116;-58
2021/03/03 05:02:19;;;;;;;20.70;8.23;;;;;;;;;;5073118;28;20032;-59
2021/03/03 05:04:45;;;;;;;18.52;6.82;;;;;;;;;;5075993;28;20538;-59
2021/03/03 05:07:12;;;;;;;20.67;8.13;;;;;;;;;;5061299;28;20439;-59
2021/03/03 05:09:38;;;;;;;20.25;8.38;;;;;;;;;;5056293;28;20062;-58
2021/03/03 05:12:04;;;;;;;18.70;7.75;;;;;;;;;;5054335;28;20517;-59
2021/03/03 05:14:30;;;;;;;20.80;8.93;;;;;;;;;;5057053;28;20071;-59
2021/03/03 05:16:56;;;;;;;21.92;8.18;;;;;;;;;;5055464;28;20033;-59
2021/03/03 05:19:22;;;;;;;21.27;8.15;;;;;;;;;;5074059;28;20024;-58
2021/03/03 05:21:48;;;;;;;19.70;8.55;;;;;;;;;;5074954;28;20029;-58
2021/03/03 05:24:14;;;;;;;21.00;8.82;;;;;;;;;;5057640;28;20020;-58
2021/03/03 05:26:40;;;;;;;19.40;9.18;;;;;;;;;;5055658;28;20028;-59
2021/03/03 05:29:06;;;;;;;24.80;8.00;;;;;;;;;;5055212;28;20041;-58
2021/03/03 05:31:32;;;;;;;19.27;8.15;;;;;;;;;;5055421;28;20025;-59
2021/03/03 05:33:58;;;;;;;16.17;8.18;;;;;;;;;;5069168;28;20034;-59
2021/03/03 05:36:24;;;;;;;19.08;8.07;;;;;;;;;;5073966;28;20016;-59
2021/03/03 05:38:50;;;;;;;17.13;7.78;;;;;;;;;;5055412;28;20451;-58
2021/03/03 05:41:16;;;;;;;14.48;7.20;;;;;;;;;;5055141;28;20060;-59
2021/03/03 05:43:42;;;;;;;18.25;8.40;;;;;;;;;;5055446;28;20516;-58
2021/03/03 05:46:09;;;;;;;28.20;9.38;;;;;;;;;;5056234;28;20047;-58
2021/03/03 05:48:41;;;;;;;29.52;10.10;;;;;;;;;;5058632;28;20046;-58
2021/03/03 05:51:07;;;;;;;25.10;9.40;;;;;;;;;;5072182;28;20028;-58
2021/03/03 05:53:34;;;;;;;20.67;9.15;;;;;;;;;;5074383;28;20036;-59
2021/03/03 05:56:01;;;;;;;22.23;9.20;;;;;;;;;;5064000;28;20500;-59
2021/03/03 05:58:28;;;;;;;21.60;9.00;;;;;;;;;;5074508;28;20500;-58
2021/03/03 06:00:58;;;;;;;21.55;8.65;;;;;;;;;;5072787;28;20021;-58
2021/03/03 06:03:24;;;;;;;21.55;9.65;;;;;;;;;;5062820;28;20056;-58
2021/03/03 06:05:51;;;;;;;25.40;9.20;;;;;;;;;;5072903;28;20054;-58
2021/03/03 06:08:17;;;;;;;26.05;9.57;;;;;;;;;;5074309;28;20086;-58
2021/03/03 06:10:44;;;;;;;21.45;9.15;;;;;;;;;;5073561;28;20218;-59
2021/03/03 06:13:10;;;;;;;22.73;8.98;;;;;;;;;;5064973;28;20482;-58
2021/03/03 06:15:36;;;;;;;20.33;9.63;;;;;;;;;;5058078;28;20119;-58
2021/03/03 06:18:05;;;;;;;20.55;9.02;;;;;;;;;;5055239;28;20021;-58
2021/03/03 06:20:36;;;;;;;17.98;8.52;;;;;;;;;;5054243;28;20112;-58
2021/03/03 06:23:13;;;;;;;22.50;8.40;;;;;;;;;;5066595;28;20033;-58
2021/03/03 06:25:39;;;;;;;21.40;8.82;;;;;;;;;;5074109;28;20021;-58
2021/03/03 06:28:05;;;;;;;21.48;8.68;;;;;;;;;;5072097;28;20485;-58
2021/03/03 06:30:31;;;;;;;29.38;8.27;;;;;;;;;;5060983;28;20036;-59
2021/03/03 06:32:58;;;;;;;16.88;7.72;;;;;;;;;;5053986;28;20351;-58
2021/03/03 06:35:35;;;;;;;19.35;7.93;;;;;;;;;;5052064;28;20442;-59
2021/03/03 06:38:01;;;;;;;18.15;8.30;;;;;;;;;;5054762;28;20029;-59
2021/03/03 06:40:27;;;;;;;18.88;8.75;;;;;;;;;;5054130;28;20092;-58
2021/03/03 06:42:54;;;;;;;21.80;8.57;;;;;;;;;;5060302;28;20029;-58
2021/03/03 06:45:30;;;;;;;26.75;9.75;;;;;;;;;;5073646;28;20048;-58
2021/03/03 06:47:56;;;;;;;26.13;9.10;;;;;;;;;;5070497;28;20170;-59
2021/03/03 06:50:32;;;;;;;18.05;7.93;;;;;;;;;;5073670;28;20028;-59
2021/03/03 06:52:58;;;;;;;16.75;8.02;;;;;;;;;;5073875;28;20036;-58
2021/03/03 06:55:24;;;;;;;22.30;8.52;;;;;;;;;;5073820;28;20017;-59
2021/03/03 06:57:50;;;;;;;18.27;8.00;;;;;;;;;;5068120;28;20401;-58
2021/03/03 07:00:36;;;;;;;18.50;8.80;;;;;;;;;;5054899;28;20036;-58
2021/03/03 07:03:21;;;;;;;25.85;9.18;;;;;;;;;;5053438;28;20508;-59
2021/03/03 07:05:47;;;;;;;23.08;9.50;;;;;;;;;;5052499;28;20079;-59
2021/03/03 07:08:13;;;;;;;28.67;10.18;;;;;;;;;;5061219;28;20048;-59
2021/03/03 07:10:39;;;;;;;24.00;8.93;;;;;;;;;;5073066;28;20035;-59
2021/03/03 07:13:05;;;;;;;23.05;8.82;;;;;;;;;;5077940;28;20350;-59
2021/03/03 07:15:31;;;;;;;21.08;7.38;;;;;;;;;;5084620;28;20457;-59
2021/03/03 07:17:57;;;;;;;19.95;7.57;;;;;;;;;;5081296;28;20021;-56
2021/03/03 07:20:24;;;;;;;23.88;7.93;;;;;;;;;;5060601;28;20038;-59
2021/03/03 07:22:51;;;;;;;14.75;7.43;;;;;;;;;;5062285;28;20049;-58
2021/03/03 07:25:18;;;;;;;15.13;8.30;;;;;;;;;;5063031;28;20067;-58
2021/03/03 07:27:45;;;;;;;15.65;7.38;;;;;;;;;;5056705;28;20040;-58
2021/03/03 07:30:12;;;;;;;16.90;8.25;;;;;;;;;;5053118;28;20451;-58
2021/03/03 07:32:38;;;;;;;27.52;9.43;;;;;;;;;;5062973;28;20049;-59
2021/03/03 07:35:06;;;;;;;26.55;9.70;;;;;;;;;;5062455;28;20083;-58
2021/03/03 07:37:33;;;;;;;20.98;9.00;;;;;;;;;;5058024;28;20017;-58
2021/03/03 07:40:07;;;;;;;20.60;9.68;;;;;;;;;;5058944;28;20052;-58
2021/03/03 07:42:33;;;;;;;20.95;7.72;;;;;;;;;;5057879;28;20040;-58
2021/03/03 07:45:01;;;;;;;24.08;7.97;;;;;;;;;;5061199;28;20474;-59
2021/03/03 07:47:35;;;;;;;22.13;9.70;;;;;;;;;;5062536;28;20373;-59
2021/03/03 07:50:04;;;;;;;26.20;9.88;;;;;;;;;;5067845;28;20021;-58
2021/03/03 07:52:32;;;;;;;21.23;9.57;;;;;;;;;;5061935;28;20033;-58
2021/03/03 07:54:59;;;;;;;19.55;9.23;;;;;;;;;;5061347;28;20070;-58
2021/03/03 07:57:25;;;;;;;24.85;9.27;;;;;;;;;;5060300;28;20109;-59
2021/03/03 07:59:53;;;;;;;26.30;10.15;;;;;;;;;;5051792;28;20437;-59
2021/03/03 08:02:19;;;;;;;28.33;10.68;;;;;;;;;;5053981;28;20025;-59
2021/03/03 08:04:45;;;;;;;25.98;11.10;;;;;;;;;;5072765;28;20051;-59
2021/03/03 08:07:14;;;;;;;30.95;10.90;;;;;;;;;;5052549;28;20025;-59
2021/03/03 08:09:40;;;;;;;35.50;10.32;;;;;;;;;;5060405;28;20462;-58
2021/03/03 08:12:06;;;;;;;21.08;9.43;;;;;;;;;;5059523;28;20124;-59
2021/03/03 08:14:32;;;;;;;24.40;11.35;;;;;;;;;;5060622;28;20035;-59
2021/03/03 08:17:00;;;;;;;34.88;11.30;;;;;;;;;;5063501;28;20049;-59
2021/03/03 08:19:44;;;;;;;29.80;10.63;;;;;;;;;;5061232;28;20455;-59
2021/03/03 08:22:10;;;;;;;27.27;10.32;;;;;;;;;;5062204;28;20082;-59
2021/03/03 08:24:37;;;;;;;26.48;10.57;;;;;;;;;;5061994;28;20443;-59
2021/03/03 08:27:04;;;;;;;24.90;10.05;;;;;;;;;;5060491;28;20032;-58
2021/03/03 08:29:30;;;;;;;20.35;10.20;;;;;;;;;;5062666;28;20462;-58
2021/03/03 08:32:15;;;;;;;20.92;9.82;;;;;;;;;;5059224;28;20031;-59
2021/03/03 08:34:51;;;;;;;29.48;12.10;;;;;;;;;;5061571;28;20064;-58
2021/03/03 08:37:27;;;;;;;25.35;10.75;;;;;;;;;;5062908;28;20053;-58
2021/03/03 08:39:53;;;;;;;34.60;10.50;;;;;;;;;;5062277;28;20047;-58
2021/03/03 08:42:32;;;;;;;22.30;9.90;;;;;;;;;;5060286;28;20032;-59
2021/03/03 08:45:00;;;;;;;23.55;9.90;;;;;;;;;;5061244;28;20032;-59
2021/03/03 08:47:43;;;;;;;24.58;11.43;;;;;;;;;;5058007;28;20109;-59
2021/03/03 08:50:28;;;;;;;35.72;11.93;;;;;;;;;;5060980;28;20082;-59
2021/03/03 08:53:12;;;;;;;27.83;12.30;;;;;;;;;;5062417;28;20082;-59
2021/03/03 08:55:38;;;;;;;38.28;11.68;;;;;;;;;;5060360;28;20482;-56
2021/03/03 08:58:24;;;;;;;25.60;11.13;;;;;;;;;;5061432;28;20578;-56
2021/03/03 09:00:50;;;;;;;28.55;11.90;;;;;;;;;;5073202;28;20028;-56
2021/03/03 09:03:19;;;;;;;24.90;10.88;;;;;;;;;;5077375;28;20036;-56
2021/03/03 09:05:46;;;;;;;23.10;9.15;;;;;;;;;;5074116;28;20118;-56
2021/03/03 09:08:19;;;;;;;24.13;10.68;;;;;;;;;;5073695;28;20047;-56
2021/03/03 09:10:46;;;;;;;30.38;11.30;;;;;;;;;;5078583;28;20133;-56
2021/03/03 09:13:32;;;;;;;32.05;13.27;;;;;;;;;;5083527;28;20024;-56
2021/03/03 09:16:05;;;;;;;31.58;10.02;;;;;;;;;;5071711;28;20058;-56
2021/03/03 09:18:31;;;;;;;24.00;10.93;;;;;;;;;;5053460;28;20056;-56
2021/03/03 09:21:05;;;;;;;32.75;10.75;;;;;;;;;;5054871;28;20107;-56
2021/03/03 09:23:31;;;;;;;25.92;10.57;;;;;;;;;;5054690;28;20074;-56
2021/03/03 09:25:57;;;;;;;22.15;10.38;;;;;;;;;;5054814;28;20024;-56
2021/03/03 09:28:38;;;;;;;28.20;10.73;;;;;;;;;;5055654;28;20399;-56
2021/03/03 09:31:04;;;;;;;29.67;12.75;;;;;;;;;;5055694;28;20021;-56
2021/03/03 09:33:31;;;;;;;24.95;11.43;;;;;;;;;;5055275;28;20037;-56
2021/03/03 09:35:57;;;;;;;27.92;11.75;;;;;;;;;;5055326;28;20029;-56
2021/03/03 09:38:23;;;;;;;23.08;9.70;;;;;;;;;;5055925;28;20417;-56
2021/03/03 09:40:49;;;;;;;26.42;11.05;;;;;;;;;;5055550;28;20044;-56
2021/03/03 09:43:15;;;;;;;27.23;12.10;;;;;;;;;;5065550;28;20115;-56
2021/03/03 09:45:41;;;;;;;27.23;9.80;;;;;;;;;;5057750;28;20028;-56
2021/03/03 09:48:08;;;;;;;25.35;11.55;;;;;;;;;;5055954;28;20029;-56
2021/03/03 09:50:34;;;;;;;30.70;11.75;;;;;;;;;;5054856;28;20071;-56
2021/03/03 09:53:01;;;;;;;21.88;10.48;;;;;;;;;;5064007;28;20070;-56
2021/03/03 09:55:33;;;;;;;27.77;10.57;;;;;;;;;;5066550;28;20032;-55
2021/03/03 09:57:59;;;;;;;26.05;9.35;;;;;;;;;;5061658;28;20025;-56
2021/03/03 10:00:29;;;;;;;20.20;10.48;;;;;;;;;;5064566;28;20028;-56
2021/03/03 10:02:57;;;;;;;26.20;10.55;;;;;;;;;;5064118;28;20020;-56
2021/03/03 10:05:24;;;;;;;26.85;10.70;;;;;;;;;;5063358;28;20033;-56
2021/03/03 10:07:58;;;;;;;18.73;9.60;;;;;;;;;;5060689;28;20032;-56
2021/03/03 10:10:25;;;;;;;29.80;9.88;;;;;;;;;;5062776;28;20021;-56
2021/03/03 10:12:51;;;;;;;29.30;11.82;;;;;;;;;;5065023;28;20025;-56
2021/03/03 10:15:20;;;;;;;25.40;9.93;;;;;;;;;;5064585;28;20028;-56
2021/03/03 10:17:51;;;;;;;23.45;10.63;;;;;;;;;;5062223;28;20035;-56
2021/03/03 10:20:30;;;;;;;26.80;10.40;;;;;;;;;;5061798;28;20063;-56
2021/03/03 10:22:57;;;;;;;31.63;10.95;;;;;;;;;;5063699;28;20032;-56
2021/03/03 10:25:49;;;;;;;30.45;10.82;;;;;;;;;;5069535;28;20055;-56
2021/03/03 10:28:16;;;;;;;18.90;9.48;;;;;;;;;;5072750;28;20378;-56
2021/03/03 10:30:46;;;;;;;26.83;12.15;;;;;;;;;;5072562;28;20103;-56
2021/03/03 10:33:27;;;;;;;28.17;11.13;;;;;;;;;;5054493;28;20032;-56
2021/03/03 10:35:53;;;;;;;45.28;12.55;;;;;;;;;;5054302;28;20040;-56
2021/03/03 10:38:22;;;;;;;31.35;13.07;;;;;;;;;;5058194;28;20108;-56
2021/03/03 10:40:49;;;;;;;29.10;10.30;;;;;;;;;;5072043;28;20086;-56
2021/03/03 10:43:16;;;;;;;23.02;9.48;;;;;;;;;;5062371;28;20079;-56
2021/03/03 10:45:42;;;;;;;25.50;10.07;;;;;;;;;;5056272;28;20028;-56
2021/03/03 10:48:09;;;;;;;30.20;11.60;;;;;;;;;;5065114;28;20462;-56
2021/03/03 10:50:38;;;;;;;21.27;9.95;;;;;;;;;;5063660;28;20393;-56
2021/03/03 10:53:05;;;;;;;17.83;9.38;;;;;;;;;;5062173;28;20032;-56
2021/03/03 10:55:32;;;;;;;28.20;11.25;;;;;;;;;;5063579;28;20021;-56
2021/03/03 10:58:03;;;;;;;28.20;11.85;;;;;;;;;;5064002;28;20461;-56
2021/03/03 11:00:29;;;;;;;26.08;10.45;;;;;;;;;;5062753;28;20040;-56
2021/03/03 11:03:02;;;;;;;28.67;11.93;;;;;;;;;;5062700;28;20021;-56
2021/03/03 11:05:28;;;;;;;29.40;9.57;;;;;;;;;;5063094;28;20503;-56
2021/03/03 11:07:54;;;;;;;35.13;11.85;;;;;;;;;;5054423;28;20442;-56
2021/03/03 11:10:21;;;;;;;22.88;10.02;;;;;;;;;;5053422;28;20450;-56
2021/03/03 11:12:47;;;;;;;24.23;10.95;;;;;;;;;;5054622;28;20028;-56
2021/03/03 11:15:13;;;;;;;26.80;11.30;;;;;;;;;;5053665;28;20032;-56
2021/03/03 11:17:39;;;;;;;23.55;9.68;;;;;;;;;;5053108;28;20351;-56
2021/03/03 11:20:06;;;;;;;21.17;9.80;;;;;;;;;;5052589;28;20439;-56
2021/03/03 11:22:32;;;;;;;27.30;9.70;;;;;;;;;;5053697;28;20033;-56
2021/03/03 11:24:58;;;;;;;24.73;9.60;;;;;;;;;;5054278;28;20528;-56
2021/03/03 11:27:24;;;;;;;28.90;11.75;;;;;;;;;;5062084;28;20054;-56
2021/03/03 11:29:50;;;;;;;20.25;9.57;;;;;;;;;;5054548;28;20036;-56
2021/03/03 11:32:16;;;;;;;22.30;9.57;;;;;;;;;;5053292;28;20021;-56
2021/03/03 11:34:42;;;;;;;23.00;10.25;;;;;;;;;;5063251;28;20495;-56
2021/03/03 11:37:08;;;;;;;18.40;8.48;;;;;;;;;;5069437;28;20024;-56
2021/03/03 11:39:34;;;;;;;37.80;11.10;;;;;;;;;;5053078;28;20086;-56
2021/03/03 11:42:00;;;;;;;27.02;11.38;;;;;;;;;;5052855;28;20029;-56
2021/03/03 11:44:26;;;;;;;20.92;10.80;;;;;;;;;;5053355;28;20363;-56
2021/03/03 11:46:52;;;;;;;30.13;10.85;;;;;;;;;;5053151;28;20025;-56
2021/03/03 11:49:18;;;;;;;30.33;10.35;;;;;;;;;;5051892;28;20041;-56
2021/03/03 11:51:44;;;;;;;23.50;10.23;;;;;;;;;;5053060;28;20021;-56
2021/03/03 11:54:10;;;;;;;26.77;10.68;;;;;;;;;;5053448;28;20029;-56
2021/03/03 11:56:36;;;;;;;35.83;13.27;;;;;;;;;;5053479;28;20546;-56
2021/03/03 11:59:02;;;;;;;18.02;8.73;;;;;;;;;;5057329;28;20032;-56
2021/03/03 12:01:28;;;;;;;31.17;12.77;;;;;;;;;;5061526;28;20445;-56
2021/03/03 12:03:54;;;;;;;31.90;10.82;;;;;;;;;;5062015;28;20070;-56
2021/03/03 12:06:20;;;;;;;26.60;10.98;;;;;;;;;;5063241;28;20475;-56
2021/03/03 12:08:46;;;;;;;19.42;8.25;;;;;;;;;;5061203;28;20048;-56
2021/03/03 12:11:12;;;;;;;19.52;10.15;;;;;;;;;;5062345;28;20031;-56
2021/03/03 12:13:38;;;;;;;25.10;10.00;;;;;;;;;;5062302;28;20056;-56
2021/03/03 12:16:04;;;;;;;21.23;8.38;;;;;;;;;;5062979;28;20053;-56
2021/03/03 12:18:30;;;;;;;20.77;8.85;;;;;;;;;;5059235;28;20446;-56
2021/03/03 12:20:56;;;;;;;19.52;8.65;;;;;;;;;;5060557;28;20025;-56
2021/03/03 12:23:22;;;;;;;24.38;10.98;;;;;;;;;;5061789;28;20404;-55
2021/03/03 12:25:48;;;;;;;23.85;9.20;;;;;;;;;;5062049;28;20023;-56
2021/03/03 12:28:14;;;;;;;24.65;10.20;;;;;;;;;;5060261;28;20462;-56
2021/03/03 12:30:40;;;;;;;8.23;4.07;;;;;;;;;;5062322;28;20111;-56
2021/03/03 12:33:06;;;;;;;23.65;9.50;;;;;;;;;;5062452;28;20120;-56
2021/03/03 12:35:32;;;;;;;20.38;8.50;;;;;;;;;;5067046;28;20025;-56
2021/03/03 12:37:59;;;;;;;27.85;10.30;;;;;;;;;;5064824;28;20066;-56
2021/03/03 12:40:25;;;;;;;22.98;9.18;;;;;;;;;;5065725;28;20029;-56
2021/03/03 12:42:51;;;;;;;16.17;7.38;;;;;;;;;;5066389;28;20099;-56
2021/03/03 12:45:17;;;;;;;25.10;9.77;;;;;;;;;;5066221;28;20032;-56
2021/03/03 12:47:43;;;;;;;28.35;11.13;;;;;;;;;;5063352;28;20101;-56
2021/03/03 12:50:09;;;;;;;24.33;9.13;;;;;;;;;;5066414;28;20095;-56
2021/03/03 12:52:35;;;;;;;25.92;10.07;;;;;;;;;;5063097;28;20043;-56
2021/03/03 12:55:02;;;;;;;24.05;8.93;;;;;;;;;;5066397;28;20505;-56
2021/03/03 12:57:29;;;;;;;22.65;8.73;;;;;;;;;;5064051;28;20021;-56
2021/03/03 12:59:55;;;;;;;20.77;9.27;;;;;;;;;;5063994;28;20062;-56
2021/03/03 13:02:21;;;;;;;25.05;7.38;;;;;;;;;;5063548;28;20020;-56
2021/03/03 13:04:47;;;;;;;25.15;11.68;;;;;;;;;;5066087;28;20027;-56
2021/03/03 13:07:13;;;;;;;25.10;9.68;;;;;;;;;;5063439;28;20017;-56
2021/03/03 13:09:39;;;;;;;16.05;8.02;;;;;;;;;;5066554;28;20036;-56
2021/03/03 13:12:06;;;;;;;13.25;6.35;;;;;;;;;;5063541;28;20347;-56
2021/03/03 13:14:32;;;;;;;26.27;11.07;;;;;;;;;;5065996;28;20021;-56
2021/03/03 13:17:01;;;;;;;32.83;10.55;;;;;;;;;;5063909;28;20040;-56
2021/03/03 13:19:27;;;;;;;21.50;8.30;;;;;;;;;;5064504;28;20063;-56
2021/03/03 13:21:53;;;;;;;27.02;9.75;;;;;;;;;;5064505;28;20028;-56
2021/03/03 13:24:19;;;;;;;23.10;8.35;;;;;;;;;;5065395;28;20357;-56
2021/03/03 13:26:45;;;;;;;27.70;10.52;;;;;;;;;;5064240;28;20025;-56
2021/03/03 13:29:11;;;;;;;19.35;8.75;;;;;;;;;;5064146;28;20029;-56
2021/03/03 13:31:37;;;;;;;23.83;9.40;;;;;;;;;;5061445;28;20363;-56
2021/03/03 13:34:03;;;;;;;19.58;8.52;;;;;;;;;;5062529;28;20350;-62
2021/03/03 13:36:29;;;;;;;13.65;7.05;;;;;;;;;;5063868;28;20017;-58
2021/03/03 13:38:55;;;;;;;25.63;10.27;;;;;;;;;;5062320;28;20063;-58
2021/03/03 13:41:21;;;;;;;26.15;9.23;;;;;;;;;;5062722;28;20452;-58
2021/03/03 13:43:47;;;;;;;26.60;11.82;;;;;;;;;;5064214;28;20119;-58
2021/03/03 13:46:13;;;;;;;18.27;9.13;;;;;;;;;;5064336;28;20035;-58
2021/03/03 13:48:39;;;;;;;32.47;11.10;;;;;;;;;;5063127;28;20033;-57
2021/03/03 13:51:05;;;;;;;22.27;9.30;;;;;;;;;;5064958;28;20017;-58
2021/03/03 13:53:32;;;;;;;27.83;12.48;;;;;;;;;;5063265;28;20029;-59
2021/03/03 13:55:58;;;;;;;23.65;9.55;;;;;;;;;;5065614;28;20446;-59
2021/03/03 13:58:24;;;;;;;29.35;10.90;;;;;;;;;;5063947;28;20039;-59
2021/03/03 14:00:50;;;;;;;32.63;11.85;;;;;;;;;;5065399;28;20021;-59
2021/03/03 14:03:17;;;;;;;38.38;12.23;;;;;;;;;;5062230;28;20493;-58
2021/03/03 14:05:43;;;;;;;31.15;11.50;;;;;;;;;;5061813;28;20027;-59
2021/03/03 14:08:09;;;;;;;24.80;10.20;;;;;;;;;;5065029;28;20048;-58
2021/03/03 14:10:35;;;;;;;28.67;11.20;;;;;;;;;;5063249;28;20102;-59
2021/03/03 14:13:01;;;;;;;29.60;11.60;;;;;;;;;;5063756;28;20435;-58
2021/03/03 14:15:27;;;;;;;38.58;12.68;;;;;;;;;;5067379;28;20044;-58
2021/03/03 14:17:53;;;;;;;35.38;11.70;;;;;;;;;;5073881;28;20385;-59
2021/03/03 14:20:19;;;;;;;29.13;11.60;;;;;;;;;;5073231;28;20045;-59
2021/03/03 14:22:45;;;;;;;31.13;11.23;;;;;;;;;;5074410;28;20029;-58
2021/03/03 14:25:12;;;;;;;30.30;11.15;;;;;;;;;;5072879;28;20032;-59
2021/03/03 14:27:38;;;;;;;27.27;12.55;;;;;;;;;;5064760;28;20032;-59